Time;durP1;ratioP1;P1;durP2;ratioP2;P2;SDS_P1;SDS_P2;PMS_P1;PMS_P2;Temp;Humidity;BMP_temperature;BMP_pressure;BME280_temperature;BME280_humidity;BME280_pressure;Samples;Min_cycle;Max_cycle;Signal;HPM_P1;HPM_P2
2022/12/16 00:01:18;;;;;;;112.45;81.30;;;12.00;67.20;;;;;;4589703;19;20997;-29
2022/12/16 00:02:50;;;;;;;124.63;89.00;;;12.00;67.30;;;;;;4589806;19;20021;-28
2022/12/16 00:04:21;;;;;;;120.00;87.47;;;12.00;67.20;;;;;;4589435;19;20417;-28
2022/12/16 00:05:54;;;;;;;132.30;89.75;;;11.90;67.00;;;;;;4588576;19;20018;-28
2022/12/16 00:07:25;;;;;;;118.77;85.37;;;11.90;66.90;;;;;;4589345;19;20011;-29
2022/12/16 00:08:56;;;;;;;123.43;85.45;;;11.90;66.90;;;;;;4589374;19;20464;-29
2022/12/16 00:10:51;;;;;;;122.30;85.43;;;11.90;66.90;;;;;;4588883;19;20599;-28
2022/12/16 00:12:18;;;;;;;128.87;85.93;;;11.90;66.70;;;;;;4589052;19;20014;-30
2022/12/16 00:13:49;;;;;;;125.95;88.00;;;11.90;66.60;;;;;;4588084;19;20471;-28
2022/12/16 00:15:21;;;;;;;128.40;85.93;;;11.90;66.70;;;;;;4588478;19;20078;-29
2022/12/16 00:16:52;;;;;;;117.80;82.47;;;11.90;67.00;;;;;;4589458;19;20006;-28
2022/12/16 00:18:23;;;;;;;123.55;85.45;;;11.90;67.40;;;;;;4589513;19;20018;-29
2022/12/16 00:19:54;;;;;;;114.43;81.75;;;11.90;67.70;;;;;;4589453;19;20066;-29
2022/12/16 00:21:28;;;;;;;123.07;82.13;;;11.90;67.70;;;;;;4588005;19;20042;-28
2022/12/16 00:22:59;;;;;;;114.77;80.90;;;11.90;67.70;;;;;;4588841;19;20011;-28
2022/12/16 00:24:30;;;;;;;114.13;81.18;;;12.00;67.70;;;;;;4589358;19;20492;-28
2022/12/16 00:26:02;;;;;;;119.15;83.22;;;12.00;67.60;;;;;;4589407;19;20014;-29
2022/12/16 00:27:35;;;;;;;124.50;86.33;;;11.90;67.50;;;;;;4589114;19;20013;-29
2022/12/16 00:29:06;;;;;;;120.97;83.07;;;11.90;67.20;;;;;;4589116;19;20574;-30
2022/12/16 00:30:38;;;;;;;123.53;82.78;;;11.90;67.00;;;;;;4589260;19;20014;-29
2022/12/16 00:32:09;;;;;;;117.10;79.30;;;11.90;66.90;;;;;;4587999;19;20038;-28
2022/12/16 00:33:41;;;;;;;119.35;79.40;;;11.90;66.80;;;;;;4586473;19;20578;-29
2022/12/16 00:35:12;;;;;;;113.63;78.38;;;11.90;66.70;;;;;;4587390;19;20010;-27
2022/12/16 00:36:43;;;;;;;111.13;77.20;;;11.90;66.60;;;;;;4586488;19;20015;-32
2022/12/16 00:38:14;;;;;;;119.72;78.55;;;11.90;66.70;;;;;;4588218;19;20011;-28
2022/12/16 00:39:46;;;;;;;110.85;76.90;;;11.90;66.60;;;;;;4587827;19;20073;-28
2022/12/16 00:41:17;;;;;;;105.70;72.72;;;11.90;66.40;;;;;;4588759;19;20007;-28
2022/12/16 00:42:48;;;;;;;109.82;76.22;;;11.90;66.60;;;;;;4589149;19;20014;-27
2022/12/16 00:44:19;;;;;;;104.32;74.05;;;11.90;66.40;;;;;;4587636;19;20015;-30
2022/12/16 00:45:50;;;;;;;98.45;71.63;;;11.90;66.50;;;;;;4588377;19;20015;-28
2022/12/16 00:47:21;;;;;;;90.82;65.32;;;11.90;66.50;;;;;;4588971;19;20018;-29
2022/12/16 00:48:53;;;;;;;99.10;69.88;;;11.90;66.50;;;;;;4589122;19;20006;-30
2022/12/16 00:50:24;;;;;;;93.45;65.65;;;11.90;66.50;;;;;;4588751;19;20023;-30
2022/12/16 00:51:55;;;;;;;90.45;63.50;;;11.90;66.40;;;;;;4588682;19;20424;-29
2022/12/16 00:53:27;;;;;;;89.57;64.53;;;11.90;66.30;;;;;;4588961;19;20017;-29
2022/12/16 00:54:58;;;;;;;92.00;64.80;;;11.90;66.30;;;;;;4587005;19;20007;-32
2022/12/16 00:56:29;;;;;;;90.85;64.07;;;11.90;66.20;;;;;;4588502;19;20099;-28
2022/12/16 00:58:00;;;;;;;97.97;66.22;;;11.90;66.20;;;;;;4588712;19;20034;-28
2022/12/16 00:59:31;;;;;;;92.68;64.85;;;11.90;66.10;;;;;;4588251;19;20014;-28
2022/12/16 01:01:03;;;;;;;92.18;63.78;;;11.90;65.90;;;;;;4588625;19;20044;-29
2022/12/16 01:02:34;;;;;;;85.97;60.13;;;11.90;66.00;;;;;;4588479;19;20014;-29
2022/12/16 01:04:05;;;;;;;80.95;59.63;;;11.90;66.00;;;;;;4588420;19;20396;-31
2022/12/16 01:05:37;;;;;;;82.47;59.90;;;11.90;66.00;;;;;;4588674;19;20343;-28
2022/12/16 01:07:08;;;;;;;82.32;60.05;;;11.90;66.10;;;;;;4588376;19;20014;-27
2022/12/16 01:08:39;;;;;;;80.50;57.40;;;11.80;66.00;;;;;;4588527;19;20043;-29
2022/12/16 01:10:11;;;;;;;81.88;60.08;;;11.80;66.00;;;;;;4588930;19;20014;-28
2022/12/16 01:11:42;;;;;;;83.20;58.60;;;11.80;66.00;;;;;;4587390;19;20088;-28
2022/12/16 01:13:13;;;;;;;78.22;58.17;;;11.90;66.10;;;;;;4588015;19;20078;-28
2022/12/16 01:14:45;;;;;;;;;;;11.90;66.10;;;;;;4588128;19;20030;-29
2022/12/16 01:16:16;;;;;;;76.10;54.80;;;11.80;66.20;;;;;;4588358;19;20277;-28
2022/12/16 01:17:47;;;;;;;75.13;53.97;;;11.80;66.10;;;;;;4587247;19;20393;-28
2022/12/16 01:19:18;;;;;;;75.82;56.17;;;11.80;66.10;;;;;;4587859;19;20074;-28
2022/12/16 01:20:50;;;;;;;76.65;56.78;;;11.80;66.10;;;;;;4588236;19;20011;-28
2022/12/16 01:22:21;;;;;;;80.83;57.00;;;11.90;66.20;;;;;;4591083;19;20017;-29
2022/12/16 01:23:53;;;;;;;71.97;54.83;;;11.80;66.20;;;;;;4592735;19;20577;-28
2022/12/16 01:25:24;;;;;;;76.53;54.47;;;11.90;66.50;;;;;;4591695;19;20017;-29
2022/12/16 01:26:55;;;;;;;69.65;52.58;;;11.80;66.30;;;;;;4591479;19;20011;-30
2022/12/16 01:28:28;;;;;;;74.30;53.92;;;11.80;66.20;;;;;;4592490;19;20019;-29
2022/12/16 01:29:59;;;;;;;74.83;54.93;;;11.90;66.30;;;;;;4592572;19;20003;-28
2022/12/16 01:31:30;;;;;;;73.15;54.63;;;11.90;66.30;;;;;;4592790;19;20558;-28
2022/12/16 01:33:01;;;;;;;74.57;55.60;;;11.80;66.20;;;;;;4592418;19;20018;-30
2022/12/16 01:34:32;;;;;;;76.20;54.17;;;11.80;66.10;;;;;;4591438;19;20014;-27
2022/12/16 01:36:05;;;;;;;71.57;52.97;;;11.80;66.20;;;;;;4592206;19;20028;-29
2022/12/16 01:37:36;;;;;;;67.03;51.13;;;11.80;66.10;;;;;;4592322;19;20502;-28
2022/12/16 01:39:10;;;;;;;71.15;51.40;;;11.80;66.20;;;;;;4592644;19;20429;-28
2022/12/16 01:40:41;;;;;;;72.20;52.63;;;11.80;66.30;;;;;;4592621;19;20475;-30
2022/12/16 01:42:14;;;;;;;70.38;52.40;;;11.80;66.40;;;;;;4591285;19;20540;-28
2022/12/16 01:43:46;;;;;;;67.77;51.00;;;11.80;66.30;;;;;;4591252;19;20006;-28
2022/12/16 01:45:35;;;;;;;65.90;49.58;;;11.80;66.40;;;;;;4591203;19;20444;-28
2022/12/16 01:47:06;;;;;;;69.93;50.67;;;11.80;66.30;;;;;;4592496;19;20074;-31
2022/12/16 01:49:01;;;;;;;66.55;52.00;;;11.80;66.20;;;;;;4592250;19;20444;-28
2022/12/16 01:50:32;;;;;;;66.70;49.40;;;11.80;66.20;;;;;;4589841;19;20371;-29
2022/12/16 01:52:06;;;;;;;65.60;48.58;;;11.80;66.10;;;;;;4589864;19;21101;-30
2022/12/16 01:53:37;;;;;;;65.80;49.00;;;11.80;66.10;;;;;;4589813;19;20010;-28
2022/12/16 01:55:20;;;;;;;65.68;49.28;;;11.80;66.20;;;;;;4588777;19;20445;-30
2022/12/16 01:56:59;;;;;;;64.97;48.17;;;11.80;66.10;;;;;;4590095;19;20055;-28
2022/12/16 01:58:32;;;;;;;68.90;48.53;;;11.80;66.00;;;;;;4589988;19;20463;-28
2022/12/16 02:00:05;;;;;;;60.93;46.37;;;11.80;65.90;;;;;;4588717;19;20458;-30
2022/12/16 02:01:36;;;;;;;66.50;50.30;;;11.80;65.90;;;;;;4589976;19;20540;-29
2022/12/16 02:03:08;;;;;;;62.13;46.20;;;11.80;65.80;;;;;;4589905;19;21250;-30
2022/12/16 02:05:19;;;;;;;66.63;50.97;;;11.80;66.00;;;;;;4589888;19;20014;-30
2022/12/16 02:06:30;;;;;;;63.73;46.53;;;11.80;66.00;;;;;;4589917;19;20456;-29
2022/12/16 02:08:11;;;;;;;69.05;49.33;;;11.80;66.00;;;;;;4589964;19;20478;-28
2022/12/16 02:09:42;;;;;;;66.05;49.10;;;11.80;65.80;;;;;;4589563;19;20047;-32
2022/12/16 02:11:31;;;;;;;62.08;46.53;;;11.80;65.70;;;;;;4589697;19;20010;-28
2022/12/16 02:13:34;;;;;;;65.17;48.13;;;11.80;65.70;;;;;;4589466;19;20031;-29
2022/12/16 02:15:17;;;;;;;;;;;11.70;65.50;;;;;;4587981;19;20535;-28
2022/12/16 02:16:59;;;;;;;62.00;44.20;;;11.80;65.40;;;;;;4589436;19;19933;-28
2022/12/16 02:19:03;;;;;;;63.60;45.13;;;11.80;65.40;;;;;;4589415;19;20867;-28
2022/12/16 02:20:55;;;;;;;60.17;43.20;;;11.70;65.50;;;;;;4589643;19;20429;-28
2022/12/16 02:22:41;;;;;;;59.17;40.30;;;11.70;65.70;;;;;;4589516;19;20409;-29
2022/12/16 02:24:17;;;;;;;60.30;43.80;;;11.70;66.20;;;;;;4589301;19;20425;-28
2022/12/16 02:26:16;;;;;;;59.33;39.57;;;11.70;66.80;;;;;;4589129;19;20437;-30
2022/12/16 02:28:10;;;;;;;55.40;39.93;;;11.70;67.00;;;;;;4589025;19;20491;-29
2022/12/16 02:30:05;;;;;;;56.13;41.40;;;11.80;67.00;;;;;;4588681;19;20773;-27
2022/12/16 02:31:36;;;;;;;55.93;40.37;;;11.80;66.90;;;;;;4588818;19;20802;-28
2022/12/16 02:33:21;;;;;;;58.70;39.53;;;11.80;66.70;;;;;;4588960;19;20833;-30
2022/12/16 02:35:09;;;;;;;56.73;41.50;;;11.80;66.40;;;;;;4588449;19;20405;-28
2022/12/16 02:37:19;;;;;;;58.60;41.40;;;11.80;66.50;;;;;;4588941;19;20444;-29
2022/12/16 02:38:59;;;;;;;58.87;42.33;;;11.80;66.20;;;;;;4588636;19;20543;-29
2022/12/16 02:40:35;;;;;;;57.53;41.03;;;11.80;66.10;;;;;;4588739;19;20933;-28
2022/12/16 02:42:06;;;;;;;53.90;39.40;;;11.70;66.00;;;;;;4588855;19;20413;-30
2022/12/16 02:43:49;;;;;;;55.15;39.08;;;11.80;65.90;;;;;;4588743;19;20428;-28
2022/12/16 02:45:25;;;;;;;53.53;38.93;;;11.70;65.70;;;;;;4589014;19;20010;-29
2022/12/16 02:46:57;;;;;;;56.27;40.10;;;11.70;65.60;;;;;;4588667;19;20421;-28
2022/12/16 02:48:28;;;;;;;53.45;39.28;;;11.70;65.50;;;;;;4588715;19;20433;-30
2022/12/16 02:49:59;;;;;;;52.67;40.05;;;11.70;65.60;;;;;;4588738;19;20007;-30
2022/12/16 02:51:30;;;;;;;54.03;39.47;;;11.80;65.60;;;;;;4588797;19;20082;-28
2022/12/16 02:53:02;;;;;;;51.95;38.40;;;11.70;65.40;;;;;;4588566;19;20517;-28
2022/12/16 02:54:33;;;;;;;52.97;38.45;;;11.70;65.30;;;;;;4588666;19;20032;-28
2022/12/16 02:56:34;;;;;;;56.50;39.92;;;11.70;65.40;;;;;;4588888;19;20006;-28
2022/12/16 02:58:10;;;;;;;52.92;40.03;;;11.70;65.20;;;;;;4588705;19;20515;-28
2022/12/16 02:59:44;;;;;;;49.30;38.47;;;11.70;65.20;;;;;;4588163;19;20042;-31
2022/12/16 03:01:24;;;;;;;52.67;39.07;;;11.70;65.00;;;;;;4588591;19;20483;-30
2022/12/16 03:03:12;;;;;;;52.87;39.83;;;11.70;65.00;;;;;;4588619;19;20506;-30
2022/12/16 03:04:57;;;;;;;51.90;39.70;;;11.70;64.90;;;;;;4588386;19;20477;-28
2022/12/16 03:06:29;;;;;;;53.03;39.43;;;11.70;64.80;;;;;;4588647;19;20409;-29
2022/12/16 03:08:03;;;;;;;55.00;41.33;;;11.70;64.80;;;;;;4588236;19;21036;-29
2022/12/16 03:09:35;;;;;;;50.57;39.37;;;11.70;64.70;;;;;;4588310;19;20452;-28
2022/12/16 03:11:09;;;;;;;51.13;39.22;;;11.70;64.60;;;;;;4588301;19;20516;-29
2022/12/16 03:12:41;;;;;;;52.83;39.60;;;11.70;64.60;;;;;;4588298;19;20024;-32
2022/12/16 03:14:14;;;;;;;50.45;38.72;;;11.70;64.50;;;;;;4587511;19;21064;-30
2022/12/16 03:15:46;;;;;;;52.83;38.37;;;11.70;64.40;;;;;;4587539;19;20051;-29
2022/12/16 03:17:18;;;;;;;55.27;39.77;;;11.70;64.50;;;;;;4590379;19;20548;-27
2022/12/16 03:18:51;;;;;;;53.28;38.78;;;11.70;64.50;;;;;;4589110;19;20462;-27
2022/12/16 03:20:39;;;;;;;53.67;39.60;;;11.70;64.50;;;;;;4589096;19;20121;-28
2022/12/16 03:22:13;;;;;;;55.17;42.20;;;11.70;64.70;;;;;;4589364;19;20479;-29
2022/12/16 03:23:52;;;;;;;54.57;41.37;;;11.70;64.70;;;;;;4589768;19;20418;-29
2022/12/16 03:25:23;;;;;;;52.60;39.83;;;11.70;64.80;;;;;;4589429;19;20401;-28
2022/12/16 03:27:07;;;;;;;53.35;40.60;;;11.70;64.70;;;;;;4590079;19;21104;-29
2022/12/16 03:29:00;;;;;;;56.30;42.47;;;11.70;64.70;;;;;;4589012;19;20369;-27
2022/12/16 03:30:35;;;;;;;54.07;42.40;;;11.70;64.60;;;;;;4589148;19;20447;-27
2022/12/16 03:32:14;;;;;;;54.47;40.87;;;11.70;64.70;;;;;;4589268;19;20539;-29
2022/12/16 03:34:09;;;;;;;55.23;40.77;;;11.70;64.70;;;;;;4588963;19;21005;-28
2022/12/16 03:35:54;;;;;;;52.10;40.83;;;11.70;64.70;;;;;;4588062;19;20540;-28
2022/12/16 03:37:27;;;;;;;55.77;41.50;;;11.70;64.70;;;;;;4589217;19;20432;-28
2022/12/16 03:39:00;;;;;;;56.17;42.67;;;11.70;64.70;;;;;;4588754;19;20493;-28
2022/12/16 03:40:31;;;;;;;60.67;43.72;;;11.70;64.70;;;;;;4588922;19;20421;-27
2022/12/16 03:42:03;;;;;;;59.40;44.35;;;11.70;64.90;;;;;;4589054;19;20007;-28
2022/12/16 03:43:35;;;;;;;54.35;42.13;;;11.70;65.00;;;;;;4588789;19;20353;-30
2022/12/16 03:45:07;;;;;;;56.37;42.07;;;11.70;64.90;;;;;;4587670;19;20039;-29
2022/12/16 03:46:38;;;;;;;53.70;40.83;;;11.70;65.30;;;;;;4588765;19;20445;-29
2022/12/16 03:48:11;;;;;;;59.63;44.25;;;11.70;65.40;;;;;;4589752;19;20459;-29
2022/12/16 03:49:42;;;;;;;55.47;41.17;;;11.70;65.40;;;;;;4588608;19;20445;-29
2022/12/16 03:51:14;;;;;;;53.72;41.03;;;11.70;65.40;;;;;;4588878;19;20437;-28
2022/12/16 03:52:45;;;;;;;53.63;40.50;;;11.70;65.40;;;;;;4589242;19;20034;-27
2022/12/16 03:54:17;;;;;;;54.33;40.78;;;11.70;65.40;;;;;;4589693;19;20471;-28
2022/12/16 03:55:49;;;;;;;55.70;42.57;;;11.70;65.70;;;;;;4588598;19;20070;-30
2022/12/16 03:57:20;;;;;;;59.88;42.15;;;11.70;65.70;;;;;;4589681;19;20456;-28
2022/12/16 03:58:51;;;;;;;56.55;40.83;;;11.70;65.80;;;;;;4588678;19;20048;-28
2022/12/16 04:00:23;;;;;;;54.72;41.13;;;11.70;65.70;;;;;;4588918;19;20025;-31
2022/12/16 04:01:54;;;;;;;54.53;40.83;;;11.70;65.80;;;;;;4588436;19;20015;-28
2022/12/16 04:03:25;;;;;;;53.10;41.40;;;11.70;65.70;;;;;;4589436;19;20018;-27
2022/12/16 04:04:56;;;;;;;53.83;40.33;;;11.70;65.70;;;;;;4587115;19;20488;-30
2022/12/16 04:06:27;;;;;;;53.53;41.25;;;11.70;65.80;;;;;;4589034;19;20471;-28
2022/12/16 04:07:58;;;;;;;54.00;41.30;;;11.70;65.90;;;;;;4589388;19;20484;-30
2022/12/16 04:09:30;;;;;;;56.03;41.20;;;11.70;66.00;;;;;;4589382;19;20070;-28
2022/12/16 04:24:18;;;;;;;67.53;50.53;;;11.70;65.60;;;;;;4587933;19;20524;-27
2022/12/16 04:25:49;;;;;;;70.57;51.80;;;11.70;65.60;;;;;;4587945;19;20911;-27
2022/12/16 04:27:26;;;;;;;68.55;51.00;;;11.60;65.50;;;;;;4589336;19;20541;-28
2022/12/16 04:28:57;;;;;;;64.53;49.07;;;11.70;65.60;;;;;;4589178;19;20014;-28
2022/12/16 04:30:33;;;;;;;69.43;51.22;;;11.60;65.50;;;;;;4589506;19;20524;-28
2022/12/16 04:32:04;;;;;;;122.40;84.33;;;11.60;65.60;;;;;;4587955;19;20041;-31
